Time;durP1;ratioP1;P1;durP2;ratioP2;P2;SDS_P1;SDS_P2;PMS_P1;PMS_P2;Temp;Humidity;BMP_temperature;BMP_pressure;BME280_temperature;BME280_humidity;BME280_pressure;Samples;Min_cycle;Max_cycle;Signal;HPM_P1;HPM_P2
2023/09/24 00:02:11;;;;;;;2.40;0.93;;;23.00;50.40;;;;;;5025794;28;20040;-61
2023/09/24 00:04:37;;;;;;;1.83;0.70;;;23.00;50.40;;;;;;5009157;28;20021;-61
2023/09/24 00:07:05;;;;;;;1.58;0.88;;;22.90;50.30;;;;;;5025303;28;20297;-62
2023/09/24 00:09:31;;;;;;;1.73;0.80;;;23.00;50.30;;;;;;4998859;28;20100;-62
2023/09/24 00:11:57;;;;;;;0.60;0.60;;;23.00;50.30;;;;;;5021983;28;20120;-61
2023/09/24 00:14:26;;;;;;;1.48;0.60;;;23.00;50.30;;;;;;5009362;28;20040;-61
2023/09/24 00:16:52;;;;;;;1.63;0.73;;;22.90;50.20;;;;;;5024617;28;20110;-60
2023/09/24 00:19:18;;;;;;;1.25;0.95;;;22.90;50.30;;;;;;5020093;28;20054;-60
2023/09/24 00:21:46;;;;;;;1.60;0.82;;;22.90;50.20;;;;;;5007219;28;20025;-55
2023/09/24 00:24:12;;;;;;;4.15;1.17;;;22.90;50.20;;;;;;5022289;28;20052;-59
2023/09/24 00:26:38;;;;;;;1.70;0.90;;;22.90;50.20;;;;;;5001559;28;20092;-60
2023/09/24 00:29:04;;;;;;;1.33;0.82;;;22.90;50.20;;;;;;5023310;28;20128;-60
2023/09/24 00:31:30;;;;;;;1.08;0.57;;;22.90;50.20;;;;;;5025572;28;20423;-61
2023/09/24 00:33:57;;;;;;;1.00;0.75;;;22.90;50.20;;;;;;4985748;28;20059;-63
2023/09/24 00:36:23;;;;;;;1.55;0.80;;;22.90;50.10;;;;;;5027827;28;20460;-62
2023/09/24 00:38:49;;;;;;;1.88;0.80;;;22.90;50.10;;;;;;5022271;28;20060;-61
2023/09/24 00:41:17;;;;;;;1.45;0.77;;;22.90;50.10;;;;;;5008430;28;20124;-60
2023/09/24 00:43:43;;;;;;;0.90;0.60;;;22.90;50.10;;;;;;4997049;28;20026;-59
2023/09/24 00:46:11;;;;;;;1.40;0.80;;;22.90;50.10;;;;;;5024088;28;20096;-61
2023/09/24 00:48:38;;;;;;;1.55;0.82;;;22.90;50.10;;;;;;4987671;28;20076;-61
2023/09/24 00:51:26;;;;;;;1.55;0.77;;;22.80;50.00;;;;;;4977978;28;20053;-60
2023/09/24 00:53:54;;;;;;;1.45;1.00;;;22.90;50.00;;;;;;4983898;28;20049;-63
2023/09/24 00:56:24;;;;;;;1.35;0.57;;;22.90;50.00;;;;;;4984383;28;20153;-60
2023/09/24 00:58:51;;;;;;;1.52;0.70;;;22.80;50.00;;;;;;4982477;28;20031;-60
2023/09/24 01:01:24;;;;;;;1.30;0.80;;;22.80;50.00;;;;;;4984939;28;20113;-62
2023/09/24 01:03:51;;;;;;;1.70;0.80;;;22.90;50.00;;;;;;4987225;28;20094;-63
2023/09/24 01:06:20;;;;;;;2.40;0.90;;;22.80;50.00;;;;;;4979684;28;20039;-62
2023/09/24 01:08:47;;;;;;;1.95;0.95;;;22.80;50.00;;;;;;4983006;28;20038;-61
2023/09/24 01:11:13;;;;;;;2.05;0.90;;;22.80;49.90;;;;;;5000024;28;20309;-63
2023/09/24 01:13:41;;;;;;;1.48;0.80;;;22.80;49.90;;;;;;4978759;28;20038;-60
2023/09/24 01:16:08;;;;;;;1.60;0.85;;;22.80;49.90;;;;;;4984081;28;20094;-59
2023/09/24 01:18:37;;;;;;;2.15;0.90;;;22.80;49.90;;;;;;4974205;28;20106;-61
2023/09/24 01:21:13;;;;;;;1.50;0.90;;;22.80;49.90;;;;;;4977916;28;20134;-62
2023/09/24 01:23:40;;;;;;;1.77;0.82;;;22.80;49.80;;;;;;4987318;28;20145;-63
2023/09/24 01:26:08;;;;;;;2.33;0.98;;;22.80;49.80;;;;;;4982454;28;20038;-61
2023/09/24 01:28:34;;;;;;;2.35;0.90;;;22.80;49.70;;;;;;4978250;28;20204;-61
2023/09/24 01:31:01;;;;;;;1.23;0.68;;;22.80;49.70;;;;;;4973998;28;20038;-61
2023/09/24 01:33:27;;;;;;;1.23;0.57;;;22.80;49.70;;;;;;4987712;28;20041;-62
2023/09/24 01:35:52;;;;;;;1.90;0.90;;;22.80;49.70;;;;;;4989246;28;20341;-63
2023/09/24 01:38:19;;;;;;;1.45;0.75;;;22.80;49.70;;;;;;4991306;28;20030;-58
2023/09/24 01:40:45;;;;;;;1.30;0.90;;;22.80;49.60;;;;;;4978716;28;20030;-60
2023/09/24 01:43:14;;;;;;;3.38;1.00;;;22.70;49.60;;;;;;4981372;28;20039;-60
2023/09/24 01:45:41;;;;;;;2.42;0.73;;;22.80;49.60;;;;;;4997936;28;20038;-62
2023/09/24 01:48:07;;;;;;;1.17;0.70;;;22.80;50.10;;;;;;4989760;28;20038;-60
2023/09/24 01:50:35;;;;;;;1.52;0.73;;;22.70;49.50;;;;;;5007758;28;20079;-59
2023/09/24 01:53:02;;;;;;;1.23;0.70;;;22.70;49.50;;;;;;5000858;28;20093;-60
2023/09/24 01:55:29;;;;;;;0.80;0.60;;;22.70;49.50;;;;;;5006901;28;20066;-61
2023/09/24 01:57:56;;;;;;;1.42;0.80;;;22.70;49.50;;;;;;5009596;28;20038;-60
2023/09/24 02:00:26;;;;;;;2.17;0.70;;;22.70;49.40;;;;;;5006292;28;20149;-63
2023/09/24 02:02:56;;;;;;;0.77;0.60;;;22.70;49.40;;;;;;5004619;28;20041;-63
2023/09/24 02:05:22;;;;;;;1.65;0.75;;;22.70;49.40;;;;;;5005775;28;20713;-63
2023/09/24 02:07:50;;;;;;;1.58;0.80;;;22.70;49.40;;;;;;5017967;28;20026;-60
2023/09/24 02:10:18;;;;;;;1.95;0.88;;;22.70;49.40;;;;;;5009364;28;20121;-60
2023/09/24 02:12:45;;;;;;;1.40;0.82;;;22.70;49.40;;;;;;4999060;28;20099;-61
2023/09/24 02:15:12;;;;;;;1.63;0.90;;;22.70;49.30;;;;;;5022016;28;20394;-59
2023/09/24 02:17:43;;;;;;;0.77;0.70;;;22.70;49.30;;;;;;4999828;28;20165;-61
2023/09/24 02:20:14;;;;;;;1.02;0.60;;;22.70;49.30;;;;;;5022035;28;20057;-61
2023/09/24 02:22:42;;;;;;;3.40;0.65;;;22.70;49.30;;;;;;5006396;28;20030;-60
2023/09/24 02:25:13;;;;;;;2.33;0.95;;;22.70;49.30;;;;;;5009640;28;20030;-61
2023/09/24 02:27:39;;;;;;;1.45;0.88;;;22.70;49.20;;;;;;5011249;28;20065;-61
2023/09/24 02:30:06;;;;;;;1.63;0.80;;;22.60;49.20;;;;;;5016658;28;20124;-61
2023/09/24 02:32:32;;;;;;;1.40;0.77;;;22.60;49.10;;;;;;4997556;28;20030;-57
2023/09/24 02:34:58;;;;;;;2.15;0.90;;;22.60;49.10;;;;;;5009498;28;20097;-60
2023/09/24 02:37:27;;;;;;;1.42;0.90;;;22.60;49.10;;;;;;5011798;28;20032;-60
2023/09/24 02:39:54;;;;;;;1.80;0.85;;;22.60;49.10;;;;;;5009492;28;20113;-61
2023/09/24 02:42:21;;;;;;;1.50;0.80;;;22.60;49.10;;;;;;5008073;28;20034;-63
2023/09/24 02:44:48;;;;;;;2.33;1.00;;;22.60;49.10;;;;;;5004286;28;20026;-61
2023/09/24 02:47:15;;;;;;;1.15;0.70;;;22.60;49.10;;;;;;5007744;28;20049;-58
2023/09/24 02:49:41;;;;;;;2.20;0.90;;;22.60;49.10;;;;;;5020513;28;20034;-61
2023/09/24 02:52:09;;;;;;;1.35;0.88;;;22.60;49.00;;;;;;5036563;28;20060;-62
2023/09/24 02:54:35;;;;;;;0.88;0.60;;;22.60;49.10;;;;;;5021638;28;20494;-61
2023/09/24 02:57:00;;;;;;;1.42;1.00;;;22.60;49.00;;;;;;5007727;28;20029;-60
2023/09/24 02:59:26;;;;;;;2.03;0.90;;;22.60;49.00;;;;;;5003003;28;21599;-61
2023/09/24 03:01:52;;;;;;;1.80;0.93;;;22.60;49.10;;;;;;5009291;28;20034;-59
2023/09/24 03:04:19;;;;;;;1.38;0.82;;;22.60;49.00;;;;;;5029314;28;20032;-61
2023/09/24 03:06:48;;;;;;;0.98;0.68;;;22.60;49.00;;;;;;5005007;28;20326;-61
2023/09/24 03:09:15;;;;;;;1.48;0.80;;;22.60;49.00;;;;;;5022597;28;20056;-60
2023/09/24 03:11:41;;;;;;;1.95;0.80;;;22.60;49.00;;;;;;5025953;28;20041;-61
2023/09/24 03:14:07;;;;;;;1.77;0.80;;;22.60;49.00;;;;;;5025829;28;20053;-61
2023/09/24 03:16:33;;;;;;;1.50;0.80;;;22.50;48.80;;;;;;5023383;28;20117;-61
2023/09/24 03:19:01;;;;;;;1.52;0.73;;;22.50;48.80;;;;;;5018661;28;20348;-58
2023/09/24 03:21:27;;;;;;;2.05;1.05;;;22.50;48.80;;;;;;4991060;28;20061;-61
2023/09/24 03:23:53;;;;;;;1.77;0.90;;;22.50;48.70;;;;;;4989188;28;20475;-60
2023/09/24 03:26:20;;;;;;;3.00;0.73;;;22.50;48.70;;;;;;5006865;28;20041;-62
2023/09/24 03:28:48;;;;;;;1.38;1.00;;;22.50;48.70;;;;;;4999406;28;20025;-60
2023/09/24 03:31:15;;;;;;;1.13;0.75;;;22.50;48.70;;;;;;5007931;28;20449;-61
2023/09/24 03:33:42;;;;;;;1.27;0.50;;;22.50;48.70;;;;;;5003898;28;20040;-62
2023/09/24 03:36:08;;;;;;;1.70;0.90;;;22.50;48.60;;;;;;5024228;28;20029;-61
2023/09/24 03:38:36;;;;;;;1.45;0.90;;;22.50;48.60;;;;;;5007201;28;20074;-61
2023/09/24 03:41:03;;;;;;;1.88;0.90;;;22.50;48.60;;;;;;5023600;28;20061;-59
2023/09/24 03:43:30;;;;;;;1.50;0.73;;;22.50;48.60;;;;;;5004309;28;20409;-59
2023/09/24 03:45:57;;;;;;;2.10;0.73;;;22.50;48.60;;;;;;5020705;28;20029;-62
2023/09/24 03:48:23;;;;;;;2.08;0.88;;;22.50;48.60;;;;;;5019070;28;20057;-62
2023/09/24 03:50:50;;;;;;;1.52;0.80;;;22.50;48.50;;;;;;5006336;28;20053;-61
2023/09/24 03:53:19;;;;;;;1.25;0.80;;;22.50;48.50;;;;;;5033615;28;20119;-61
2023/09/24 03:55:45;;;;;;;2.83;1.20;;;22.50;48.50;;;;;;5022508;28;20074;-61
2023/09/24 03:58:15;;;;;;;1.75;0.75;;;22.50;48.50;;;;;;5008323;28;20057;-61
2023/09/24 04:00:41;;;;;;;1.10;0.60;;;22.50;48.50;;;;;;4988377;28;20044;-61
2023/09/24 04:03:08;;;;;;;1.73;0.70;;;22.40;48.40;;;;;;5007103;28;20037;-58
2023/09/24 04:05:34;;;;;;;1.13;0.75;;;22.40;48.40;;;;;;5017329;28;20056;-61
2023/09/24 04:08:03;;;;;;;1.63;0.68;;;22.40;48.30;;;;;;5004045;28;20322;-62
2023/09/24 04:10:30;;;;;;;0.95;0.60;;;22.40;48.30;;;;;;5009448;28;20063;-61
2023/09/24 04:12:57;;;;;;;0.90;0.70;;;22.40;48.30;;;;;;5009122;28;20417;-61
2023/09/24 04:15:29;;;;;;;1.77;0.88;;;22.40;48.30;;;;;;5009024;28;20152;-65
2023/09/24 04:17:56;;;;;;;2.00;0.80;;;22.40;48.20;;;;;;5004515;28;20064;-62
2023/09/24 04:20:22;;;;;;;5.50;0.80;;;22.40;48.20;;;;;;5016156;28;20025;-61
2023/09/24 04:22:49;;;;;;;0.88;0.60;;;22.40;48.20;;;;;;5012379;28;20040;-61
2023/09/24 04:25:22;;;;;;;2.00;0.98;;;22.40;48.20;;;;;;4996806;28;20026;-61
2023/09/24 04:27:49;;;;;;;1.50;0.73;;;22.40;48.20;;;;;;5001786;28;20030;-60
2023/09/24 04:30:15;;;;;;;1.77;0.73;;;22.40;48.20;;;;;;5007523;28;20030;-61
2023/09/24 04:32:42;;;;;;;1.83;0.90;;;22.40;48.20;;;;;;5006879;28;20038;-60
2023/09/24 04:35:11;;;;;;;1.73;0.82;;;22.40;48.20;;;;;;5008313;28;20045;-59
2023/09/24 04:37:39;;;;;;;1.55;0.95;;;22.40;48.80;;;;;;5012882;28;20029;-58
2023/09/24 04:40:16;;;;;;;0.70;0.50;;;22.40;48.20;;;;;;5005593;28;20153;-60
2023/09/24 04:42:46;;;;;;;1.10;0.70;;;22.40;48.10;;;;;;4999985;28;20083;-61
2023/09/24 04:45:13;;;;;;;2.42;0.80;;;22.40;48.80;;;;;;5015792;28;20373;-61
2023/09/24 04:47:39;;;;;;;1.38;0.75;;;22.40;48.10;;;;;;5005943;28;20026;-59
2023/09/24 04:50:07;;;;;;;1.65;0.70;;;22.40;48.10;;;;;;5027746;28;20107;-59
2023/09/24 04:52:34;;;;;;;1.02;0.73;;;22.40;48.10;;;;;;5024262;28;20032;-63
2023/09/24 04:55:01;;;;;;;1.67;0.90;;;22.30;48.00;;;;;;5009251;28;20041;-64
2023/09/24 04:57:26;;;;;;;2.13;0.88;;;22.30;47.90;;;;;;5023279;28;20056;-61
2023/09/24 04:59:53;;;;;;;0.60;0.55;;;22.30;47.90;;;;;;4994043;28;20129;-57
2023/09/24 05:02:23;;;;;;;2.10;0.80;;;22.30;47.90;;;;;;5030171;28;20385;-59
2023/09/24 05:04:50;;;;;;;1.08;0.60;;;22.30;47.90;;;;;;5012170;28;20394;-60
2023/09/24 05:07:17;;;;;;;2.67;0.60;;;22.30;47.90;;;;;;5008122;28;20060;-60
2023/09/24 05:09:45;;;;;;;0.90;0.60;;;22.30;47.90;;;;;;5028215;28;20340;-60
2023/09/24 05:12:13;;;;;;;1.17;0.70;;;22.30;47.90;;;;;;5026440;28;20073;-60
2023/09/24 05:14:39;;;;;;;1.38;0.80;;;22.30;47.90;;;;;;5009357;28;20065;-61
2023/09/24 05:17:05;;;;;;;1.98;0.77;;;22.30;47.90;;;;;;5026401;28;20160;-60
2023/09/24 05:19:31;;;;;;;1.98;0.85;;;22.30;47.80;;;;;;5027318;28;20216;-62
2023/09/24 05:21:57;;;;;;;1.02;0.77;;;22.30;47.80;;;;;;5026973;28;20026;-61
2023/09/24 05:24:23;;;;;;;1.70;0.80;;;22.30;47.80;;;;;;5032235;28;20415;-60
2023/09/24 05:26:49;;;;;;;1.13;0.70;;;22.30;47.80;;;;;;5030562;28;20028;-58
2023/09/24 05:29:15;;;;;;;1.48;0.75;;;22.30;47.70;;;;;;5032932;28;20048;-64
2023/09/24 05:31:40;;;;;;;1.40;0.85;;;22.30;47.80;;;;;;5027338;28;20163;-60
2023/09/24 05:34:07;;;;;;;1.15;0.70;;;22.30;47.70;;;;;;5013183;28;20037;-58
2023/09/24 05:36:33;;;;;;;1.30;0.77;;;22.30;47.70;;;;;;5010031;28;20025;-58
2023/09/24 05:38:59;;;;;;;1.67;0.80;;;22.30;47.70;;;;;;5026983;28;20051;-63
2023/09/24 05:41:25;;;;;;;1.33;0.90;;;22.30;47.70;;;;;;5032496;28;20396;-60
2023/09/24 05:43:54;;;;;;;1.42;0.60;;;22.20;47.80;;;;;;5029689;28;20022;-59
2023/09/24 05:46:19;;;;;;;2.03;0.80;;;22.30;47.70;;;;;;5031958;28;20036;-60
2023/09/24 05:48:46;;;;;;;1.23;0.75;;;22.30;47.70;;;;;;5034006;28;20105;-62
2023/09/24 05:51:12;;;;;;;1.33;0.70;;;22.30;47.70;;;;;;5029671;28;20049;-61
2023/09/24 05:53:38;;;;;;;1.52;0.82;;;22.30;47.60;;;;;;4995717;28;20038;-60
2023/09/24 05:56:04;;;;;;;1.65;0.80;;;22.20;47.60;;;;;;5027940;28;20121;-61
2023/09/24 05:58:30;;;;;;;1.27;0.75;;;22.20;47.60;;;;;;5011826;28;20039;-60
2023/09/24 06:00:56;;;;;;;1.63;0.80;;;22.20;47.50;;;;;;5015693;28;20030;-59
2023/09/24 06:03:22;;;;;;;1.45;0.90;;;22.20;47.50;;;;;;5033312;28;20077;-63
2023/09/24 06:05:48;;;;;;;1.70;0.80;;;22.20;47.50;;;;;;5032294;28;20081;-59
2023/09/24 06:08:14;;;;;;;0.85;0.70;;;22.20;47.50;;;;;;5028053;28;20087;-57
2023/09/24 06:10:47;;;;;;;0.70;0.60;;;22.20;47.50;;;;;;5026550;28;20040;-61
2023/09/24 06:13:15;;;;;;;0.80;0.63;;;22.20;47.40;;;;;;5030374;28;20033;-61
2023/09/24 06:15:44;;;;;;;3.20;0.80;;;22.20;47.40;;;;;;5027495;28;20203;-61
2023/09/24 06:18:12;;;;;;;1.25;0.70;;;22.20;47.50;;;;;;5029091;28;20445;-61
2023/09/24 06:20:39;;;;;;;1.90;0.80;;;22.20;47.50;;;;;;5029122;28;20025;-59
2023/09/24 06:23:05;;;;;;;1.20;0.80;;;22.20;47.50;;;;;;5029013;28;20025;-57
2023/09/24 06:25:32;;;;;;;1.85;0.77;;;22.20;47.50;;;;;;5030713;28;20041;-58
2023/09/24 06:27:58;;;;;;;0.90;0.57;;;22.20;47.50;;;;;;5030613;28;20175;-62
2023/09/24 06:30:24;;;;;;;1.50;0.70;;;22.20;47.50;;;;;;5012616;28;20141;-58
2023/09/24 06:32:50;;;;;;;1.05;0.60;;;22.20;47.60;;;;;;5024381;28;20038;-62
2023/09/24 06:35:15;;;;;;;3.17;0.77;;;22.20;48.20;;;;;;5023560;28;20018;-65
2023/09/24 06:37:41;;;;;;;1.60;0.80;;;22.20;47.60;;;;;;5022407;28;20364;-61
2023/09/24 06:40:09;;;;;;;1.15;0.68;;;22.20;47.70;;;;;;5031332;28;20021;-62
2023/09/24 06:42:37;;;;;;;1.23;0.70;;;22.20;48.30;;;;;;5029235;28;20107;-62
2023/09/24 06:45:04;;;;;;;1.00;0.68;;;22.20;47.80;;;;;;5025981;28;20030;-60
2023/09/24 06:47:29;;;;;;;1.55;0.80;;;22.20;47.80;;;;;;5026224;28;20053;-59
2023/09/24 06:49:55;;;;;;;1.30;0.88;;;22.20;47.80;;;;;;5031486;28;20374;-62
2023/09/24 06:52:22;;;;;;;1.23;0.57;;;22.20;47.80;;;;;;5031913;28;20028;-60
2023/09/24 06:54:48;;;;;;;1.70;0.85;;;22.20;47.80;;;;;;5039853;28;20035;-58
2023/09/24 06:57:13;;;;;;;1.40;0.88;;;22.20;47.90;;;;;;5030327;28;20041;-62
2023/09/24 06:59:39;;;;;;;1.42;0.90;;;22.20;47.90;;;;;;5038745;28;20040;-61
2023/09/24 07:02:06;;;;;;;0.88;0.60;;;22.20;47.90;;;;;;5033383;28;20029;-61
2023/09/24 07:04:32;;;;;;;1.65;0.90;;;22.20;47.90;;;;;;5031554;28;20111;-61
2023/09/24 07:06:58;;;;;;;1.50;0.90;;;22.20;47.90;;;;;;5032791;28;20367;-58
2023/09/24 07:09:23;;;;;;;1.20;0.80;;;22.30;48.00;;;;;;5035084;28;21114;-59
2023/09/24 07:11:49;;;;;;;2.47;1.00;;;22.20;48.00;;;;;;5032518;28;20471;-61
2023/09/24 07:14:15;;;;;;;4.75;1.55;;;22.20;48.00;;;;;;5042220;28;20526;-60
2023/09/24 07:16:41;;;;;;;2.55;1.15;;;22.30;48.20;;;;;;5038608;28;20342;-62
2023/09/24 07:19:07;;;;;;;3.25;1.33;;;22.30;48.30;;;;;;5017869;28;20080;-62
2023/09/24 07:21:34;;;;;;;3.83;1.20;;;22.30;48.40;;;;;;5021022;28;20371;-57
2023/09/24 07:24:01;;;;;;;3.42;1.35;;;22.30;48.60;;;;;;5025161;28;20052;-60
2023/09/24 07:26:28;;;;;;;3.75;1.40;;;22.30;48.70;;;;;;4999262;28;21402;-57
2023/09/24 07:28:54;;;;;;;3.70;1.50;;;22.30;48.70;;;;;;5024618;28;20079;-60
2023/09/24 07:31:22;;;;;;;3.30;1.38;;;22.30;48.80;;;;;;5004064;28;20132;-60
2023/09/24 07:33:50;;;;;;;2.45;1.27;;;22.30;48.80;;;;;;5027535;28;20044;-63
2023/09/24 07:36:16;;;;;;;3.20;1.27;;;22.30;48.90;;;;;;5022435;28;20440;-61
2023/09/24 07:38:42;;;;;;;3.10;1.20;;;22.30;49.50;;;;;;5021811;28;20425;-61
2023/09/24 07:41:09;;;;;;;2.30;1.25;;;22.30;48.90;;;;;;5021566;28;20342;-59
2023/09/24 07:43:36;;;;;;;2.13;1.40;;;22.30;48.80;;;;;;5034085;28;20102;-60
2023/09/24 07:46:03;;;;;;;2.28;1.10;;;22.30;48.80;;;;;;5020860;28;20056;-60
2023/09/24 07:48:29;;;;;;;2.38;1.20;;;22.30;48.80;;;;;;5044264;28;20361;-62
2023/09/24 07:50:58;;;;;;;3.33;1.30;;;22.30;48.80;;;;;;5028240;28;20097;-61
2023/09/24 07:53:24;;;;;;;3.38;1.60;;;22.30;48.80;;;;;;5036233;28;20386;-62
2023/09/24 07:56:08;;;;;;;3.08;1.50;;;22.30;48.90;;;;;;5042768;28;20428;-61
2023/09/24 07:58:36;;;;;;;3.00;1.30;;;22.30;49.00;;;;;;5038814;28;20100;-62
2023/09/24 08:01:03;;;;;;;4.63;1.58;;;22.30;49.10;;;;;;5042940;28;20033;-63
2023/09/24 08:03:29;;;;;;;3.58;1.70;;;22.40;49.20;;;;;;5040461;28;20037;-61
2023/09/24 08:05:55;;;;;;;3.08;1.52;;;22.30;49.30;;;;;;5044310;28;20073;-62
2023/09/24 08:08:21;;;;;;;3.25;1.50;;;22.40;49.50;;;;;;5020290;28;20501;-62
2023/09/24 08:10:47;;;;;;;4.22;1.75;;;22.40;49.60;;;;;;5025211;28;20033;-61
2023/09/24 08:13:13;;;;;;;4.10;1.67;;;22.40;49.70;;;;;;5003485;28;20141;-62
2023/09/24 08:15:39;;;;;;;3.95;1.27;;;22.40;49.80;;;;;;5023335;28;20056;-62
2023/09/24 08:18:09;;;;;;;2.85;1.65;;;22.40;49.80;;;;;;5004237;28;20040;-63
2023/09/24 08:20:36;;;;;;;3.40;1.52;;;22.40;49.80;;;;;;5005146;28;20041;-61
2023/09/24 08:23:03;;;;;;;2.13;1.20;;;22.40;49.80;;;;;;5020874;28;20029;-64
2023/09/24 08:25:30;;;;;;;2.63;1.35;;;22.40;49.70;;;;;;5000797;28;20151;-62
2023/09/24 08:27:57;;;;;;;2.70;1.02;;;22.40;49.70;;;;;;5004999;28;20381;-61
2023/09/24 08:30:23;;;;;;;2.33;1.17;;;22.40;49.60;;;;;;5021087;28;20099;-63
2023/09/24 08:32:49;;;;;;;3.55;1.40;;;22.40;49.60;;;;;;5022471;28;20040;-59
2023/09/24 08:35:15;;;;;;;1.77;0.80;;;22.40;49.60;;;;;;5024292;28;20032;-56
2023/09/24 08:37:41;;;;;;;1.08;0.70;;;22.40;49.10;;;;;;5021299;28;20030;-59
2023/09/24 08:40:09;;;;;;;2.45;0.73;;;22.40;48.80;;;;;;5022556;28;20021;-59
2023/09/24 08:42:37;;;;;;;1.20;0.73;;;22.30;48.60;;;;;;5021878;28;20393;-58
2023/09/24 08:45:14;;;;;;;0.98;0.57;;;22.30;48.70;;;;;;4988650;28;20117;-58
2023/09/24 08:47:44;;;;;;;1.73;0.70;;;22.20;48.70;;;;;;5020456;28;20052;-61
2023/09/24 08:50:10;;;;;;;1.48;0.90;;;22.10;48.80;;;;;;5022257;28;20072;-62
2023/09/24 08:52:43;;;;;;;3.47;1.25;;;22.10;49.00;;;;;;5022870;28;20053;-61
2023/09/24 08:55:10;;;;;;;9.63;3.83;;;22.10;49.40;;;;;;5024094;28;20117;-61
2023/09/24 08:57:40;;;;;;;12.73;5.85;;;22.20;50.00;;;;;;5035754;28;20025;-61
2023/09/24 09:00:09;;;;;;;16.65;7.43;;;22.20;51.20;;;;;;5043129;28;20040;-59
2023/09/24 09:02:36;;;;;;;21.42;9.07;;;22.30;52.50;;;;;;5024309;28;20025;-60
2023/09/24 09:05:07;;;;;;;23.83;9.30;;;22.30;53.80;;;;;;5029602;28;20083;-61
2023/09/24 09:07:34;;;;;;;20.27;9.13;;;22.40;54.90;;;;;;5027772;28;20413;-60
2023/09/24 09:10:02;;;;;;;19.15;8.98;;;22.40;55.50;;;;;;5020734;28;20045;-59
2023/09/24 09:12:28;;;;;;;32.55;13.57;;;22.50;56.10;;;;;;5018648;28;20032;-60
2023/09/24 09:14:57;;;;;;;35.53;14.40;;;22.50;56.90;;;;;;5025338;28;20467;-58
2023/09/24 09:17:38;;;;;;;34.38;14.90;;;22.60;57.70;;;;;;5021677;28;20037;-61
2023/09/24 09:20:05;;;;;;;28.83;14.00;;;22.60;58.40;;;;;;5022385;28;20037;-62
2023/09/24 09:22:35;;;;;;;29.35;13.38;;;22.60;58.90;;;;;;5022238;28;20430;-61
2023/09/24 09:25:01;;;;;;;25.10;12.20;;;22.70;59.50;;;;;;5023199;28;20117;-61
2023/09/24 09:27:37;;;;;;;28.95;13.98;;;22.70;59.70;;;;;;5028370;28;20025;-61
2023/09/24 09:30:16;;;;;;;34.28;14.82;;;22.80;59.80;;;;;;5038773;28;20115;-60
2023/09/24 09:32:44;;;;;;;32.97;14.85;;;22.80;60.00;;;;;;5041104;28;20045;-57
2023/09/24 09:35:10;;;;;;;28.35;14.32;;;22.80;60.30;;;;;;5020375;28;20410;-60
2023/09/24 09:37:41;;;;;;;28.95;14.55;;;22.90;60.70;;;;;;5016617;28;20030;-61
2023/09/24 09:40:08;;;;;;;26.45;13.80;;;22.90;61.00;;;;;;5039253;28;20029;-61
2023/09/24 09:42:35;;;;;;;25.65;11.80;;;22.90;61.40;;;;;;5026994;28;20131;-60
2023/09/24 09:45:07;;;;;;;19.70;9.60;;;23.00;61.40;;;;;;5021287;28;20029;-61
2023/09/24 09:47:37;;;;;;;13.50;6.53;;;23.00;60.30;;;;;;5023838;28;20068;-61
2023/09/24 09:50:04;;;;;;;13.25;5.95;;;23.10;59.10;;;;;;4983023;28;20027;-61
2023/09/24 09:52:36;;;;;;;8.05;4.43;;;23.10;58.00;;;;;;4974544;28;20034;-61
2023/09/24 09:55:06;;;;;;;9.55;4.20;;;23.10;57.00;;;;;;4980706;28;20401;-54
2023/09/24 09:57:33;;;;;;;6.60;2.58;;;23.10;56.00;;;;;;4998923;28;20040;-52
2023/09/24 10:00:07;;;;;;;4.50;2.40;;;23.10;54.80;;;;;;4996087;28;20030;-60
2023/09/24 10:02:42;;;;;;;3.28;1.63;;;23.10;53.90;;;;;;4985604;28;20110;-61
2023/09/24 10:05:12;;;;;;;3.03;1.60;;;23.00;53.40;;;;;;4986699;28;20217;-60
2023/09/24 10:07:39;;;;;;;4.63;1.98;;;23.00;53.10;;;;;;4981062;28;20160;-61
2023/09/24 10:10:34;;;;;;;6.55;2.75;;;23.00;53.00;;;;;;4997070;28;20038;-60
2023/09/24 10:13:02;;;;;;;5.57;2.22;;;23.10;52.80;;;;;;4988823;28;20034;-59
2023/09/24 10:15:31;;;;;;;4.68;1.73;;;23.10;52.70;;;;;;4990742;28;20034;-60
2023/09/24 10:18:09;;;;;;;6.07;2.42;;;23.10;52.50;;;;;;4985608;28;20156;-60
2023/09/24 10:20:59;;;;;;;3.95;1.90;;;23.10;52.20;;;;;;4985514;28;20023;-59
2023/09/24 10:23:32;;;;;;;4.18;2.15;;;23.10;51.70;;;;;;4991963;28;20094;-60
2023/09/24 10:26:04;;;;;;;4.82;3.15;;;23.10;51.40;;;;;;4993528;28;20034;-62
2023/09/24 10:28:50;;;;;;;5.95;2.85;;;23.10;51.20;;;;;;4988187;28;20030;-61
2023/09/24 10:31:17;;;;;;;4.40;2.20;;;23.10;50.80;;;;;;4983570;28;20034;-60
2023/09/24 10:34:02;;;;;;;3.97;2.03;;;23.10;50.60;;;;;;4993040;28;20493;-60
2023/09/24 10:36:30;;;;;;;3.35;1.80;;;23.10;50.20;;;;;;4982067;28;20061;-59
2023/09/24 10:39:14;;;;;;;6.00;1.77;;;23.10;50.10;;;;;;4983786;28;20030;-61
2023/09/24 10:42:11;;;;;;;4.40;1.70;;;23.10;49.80;;;;;;4998169;28;20413;-61
2023/09/24 10:44:39;;;;;;;4.82;1.92;;;23.20;49.70;;;;;;5013278;28;20374;-59
2023/09/24 10:47:23;;;;;;;3.80;1.67;;;23.10;49.50;;;;;;4983591;28;20019;-61
2023/09/24 10:50:05;;;;;;;;;;;23.10;49.20;;;;;;5024415;28;20053;-61
2023/09/24 10:53:05;;;;;;;4.22;1.60;;;23.20;49.20;;;;;;5031739;28;20324;-61
2023/09/24 10:55:39;;;;;;;2.13;1.33;;;23.20;48.90;;;;;;4984447;28;20057;-61
2023/09/24 10:58:12;;;;;;;3.17;1.60;;;23.20;48.80;;;;;;5001537;28;20091;-61
2023/09/24 11:00:38;;;;;;;4.30;1.40;;;23.20;48.70;;;;;;5023758;28;20038;-61
2023/09/24 11:03:09;;;;;;;2.83;1.05;;;23.20;49.30;;;;;;5018735;28;20037;-61
2023/09/24 11:05:41;;;;;;;3.65;1.38;;;23.20;48.40;;;;;;5027365;28;20037;-59
2023/09/24 11:08:07;;;;;;;3.22;1.50;;;23.20;48.30;;;;;;5024659;28;20409;-60
2023/09/24 11:10:34;;;;;;;5.07;3.15;;;23.30;48.30;;;;;;5024119;28;20037;-60
2023/09/24 11:13:03;;;;;;;9.05;5.75;;;23.30;48.20;;;;;;5008137;28;20084;-60
2023/09/24 11:15:31;;;;;;;10.60;5.40;;;23.30;48.00;;;;;;5031173;28;20025;-59
2023/09/24 11:17:58;;;;;;;15.02;7.97;;;23.40;47.80;;;;;;5028269;28;20035;-59
2023/09/24 11:20:28;;;;;;;16.00;8.75;;;23.50;47.80;;;;;;5025931;28;20108;-60
2023/09/24 11:22:57;;;;;;;14.45;8.63;;;23.60;47.60;;;;;;5009009;28;20128;-62
2023/09/24 11:25:24;;;;;;;14.40;8.93;;;23.60;47.60;;;;;;5010910;28;21795;-64
2023/09/24 11:27:58;;;;;;;13.32;7.38;;;23.70;47.50;;;;;;5028931;28;20043;-62
2023/09/24 11:30:29;;;;;;;10.82;6.55;;;23.80;47.20;;;;;;5012272;28;20361;-62
2023/09/24 11:34:49;;;;;;;9.48;5.53;;;24.00;46.40;;;;;;5039543;28;20414;-61
2023/09/24 11:37:15;;;;;;;8.15;4.63;;;24.10;46.70;;;;;;5036594;28;20076;-60
2023/09/24 11:39:44;;;;;;;8.05;4.63;;;24.10;46.50;;;;;;5036053;28;20041;-59
2023/09/24 11:42:18;;;;;;;8.05;3.60;;;24.20;46.30;;;;;;5037375;28;20310;-60
2023/09/24 11:44:47;;;;;;;5.50;3.30;;;24.30;46.10;;;;;;5036192;28;20033;-60
2023/09/24 11:47:13;;;;;;;8.43;3.10;;;24.30;45.90;;;;;;5024771;28;20126;-62
2023/09/24 11:49:40;;;;;;;4.82;2.47;;;24.40;46.40;;;;;;5037122;28;20033;-61
2023/09/24 11:52:12;;;;;;;5.18;2.22;;;24.50;45.50;;;;;;5033400;28;20053;-59
2023/09/24 11:54:39;;;;;;;3.35;1.92;;;24.50;45.30;;;;;;5037188;28;20045;-59
2023/09/24 11:57:06;;;;;;;3.10;1.85;;;24.60;45.20;;;;;;5036119;28;20114;-61
2023/09/24 11:59:32;;;;;;;3.25;1.70;;;24.60;44.90;;;;;;5035241;28;20022;-61
2023/09/24 12:01:58;;;;;;;4.05;1.63;;;24.70;44.80;;;;;;5038999;28;20342;-62
2023/09/24 12:04:25;;;;;;;2.65;1.35;;;24.70;44.60;;;;;;5033860;28;20175;-59
2023/09/24 12:06:51;;;;;;;4.28;1.58;;;24.70;44.40;;;;;;5035729;28;20113;-62
2023/09/24 12:09:17;;;;;;;2.28;1.58;;;24.70;44.20;;;;;;5035296;28;20025;-58
2023/09/24 12:11:43;;;;;;;2.55;1.35;;;24.70;44.00;;;;;;5035932;28;20033;-59
2023/09/24 12:14:09;;;;;;;3.10;1.45;;;24.80;43.90;;;;;;5036800;28;20112;-61
2023/09/24 12:16:36;;;;;;;3.45;1.35;;;24.80;43.70;;;;;;5031225;28;20528;-59
2023/09/24 12:19:02;;;;;;;1.77;1.08;;;24.90;43.60;;;;;;5021405;28;20040;-60
2023/09/24 12:21:28;;;;;;;3.65;1.35;;;24.90;43.50;;;;;;5032981;28;20448;-58
2023/09/24 12:23:54;;;;;;;2.42;1.00;;;24.90;43.40;;;;;;5036758;28;20029;-61
2023/09/24 12:26:20;;;;;;;2.42;1.30;;;24.90;43.30;;;;;;5034778;28;20052;-60
2023/09/24 12:28:46;;;;;;;2.42;1.20;;;25.00;43.10;;;;;;5034976;28;20030;-59
2023/09/24 12:31:13;;;;;;;1.77;0.85;;;25.00;43.00;;;;;;5028991;28;20033;-62
2023/09/24 12:33:39;;;;;;;1.92;0.95;;;25.00;42.80;;;;;;5044617;28;20142;-61
2023/09/24 12:36:06;;;;;;;1.38;0.90;;;25.00;42.60;;;;;;5056771;28;20098;-61
2023/09/24 12:38:32;;;;;;;1.40;0.90;;;25.00;42.50;;;;;;5056770;28;20348;-58
2023/09/24 12:40:58;;;;;;;1.83;0.90;;;25.10;42.50;;;;;;5051287;28;20436;-59
2023/09/24 12:43:24;;;;;;;4.25;1.02;;;25.10;42.30;;;;;;5054058;28;20016;-60
2023/09/24 12:45:50;;;;;;;1.83;0.80;;;25.10;42.20;;;;;;5047063;28;20420;-59
2023/09/24 12:48:16;;;;;;;1.73;0.90;;;25.10;42.10;;;;;;5023618;28;20022;-59
2023/09/24 12:50:43;;;;;;;1.35;0.80;;;25.10;42.00;;;;;;5038094;28;20461;-60
2023/09/24 12:53:09;;;;;;;3.17;0.80;;;25.20;42.00;;;;;;5041148;28;20090;-60